sensor_id;sensor_type;location;lat;lon;timestamp;pressure;altitude;pressure_sealevel;temperature;humidity
5753;BME280;2901;42.140;24.760;2022-07-23T00:02:24;99526.69;;;25.50;55.81
5753;BME280;2901;42.140;24.760;2022-07-23T00:04:49;99523.47;;;25.45;56.29
5753;BME280;2901;42.140;24.760;2022-07-23T00:07:15;99518.97;;;25.33;56.84
5753;BME280;2901;42.140;24.760;2022-07-23T00:09:40;99516.84;;;25.25;57.19
5753;BME280;2901;42.140;24.760;2022-07-23T00:12:06;99518.00;;;25.21;56.96
5753;BME280;2901;42.140;24.760;2022-07-23T00:14:31;99521.06;;;25.15;56.98
5753;BME280;2901;42.140;24.760;2022-07-23T00:16:57;99518.44;;;25.01;57.18
5753;BME280;2901;42.140;24.760;2022-07-23T00:19:22;99521.38;;;24.97;57.14
5753;BME280;2901;42.140;24.760;2022-07-23T00:21:47;99525.00;;;24.96;57.26
5753;BME280;2901;42.140;24.760;2022-07-23T00:24:13;99514.69;;;24.91;57.24
5753;BME280;2901;42.140;24.760;2022-07-23T00:26:38;99517.53;;;24.88;57.03
5753;BME280;2901;42.140;24.760;2022-07-23T00:29:04;99520.63;;;24.80;57.51
5753;BME280;2901;42.140;24.760;2022-07-23T00:31:29;99519.25;;;24.75;57.71
5753;BME280;2901;42.140;24.760;2022-07-23T00:33:54;99513.56;;;24.67;58.55
5753;BME280;2901;42.140;24.760;2022-07-23T00:36:22;99514.34;;;24.69;60.44
5753;BME280;2901;42.140;24.760;2022-07-23T00:38:49;99525.22;;;24.64;61.31
5753;BME280;2901;42.140;24.760;2022-07-23T00:41:15;99512.66;;;24.54;62.99
5753;BME280;2901;42.140;24.760;2022-07-23T00:43:40;99528.06;;;24.47;63.53
5753;BME280;2901;42.140;24.760;2022-07-23T00:46:05;99526.41;;;24.32;65.36
5753;BME280;2901;42.140;24.760;2022-07-23T00:48:31;99520.44;;;24.28;65.67
5753;BME280;2901;42.140;24.760;2022-07-23T00:50:56;99530.47;;;24.23;66.65
5753;BME280;2901;42.140;24.760;2022-07-23T00:53:22;99516.53;;;24.06;67.48
5753;BME280;2901;42.140;24.760;2022-07-23T00:55:48;99534.22;;;24.05;68.02
5753;BME280;2901;42.140;24.760;2022-07-23T00:58:15;99547.16;;;23.96;68.95
5753;BME280;2901;42.140;24.760;2022-07-23T01:00:41;99548.44;;;23.89;68.91
5753;BME280;2901;42.140;24.760;2022-07-23T01:03:07;99535.69;;;23.81;68.83
5753;BME280;2901;42.140;24.760;2022-07-23T01:05:33;99541.63;;;23.85;69.61
5753;BME280;2901;42.140;24.760;2022-07-23T01:07:58;99536.34;;;23.85;69.31
5753;BME280;2901;42.140;24.760;2022-07-23T01:10:24;99539.84;;;23.85;69.65
5753;BME280;2901;42.140;24.760;2022-07-23T01:12:57;99544.38;;;23.83;69.14
5753;BME280;2901;42.140;24.760;2022-07-23T01:15:23;99538.31;;;23.81;69.20
5753;BME280;2901;42.140;24.760;2022-07-23T01:17:48;99527.00;;;23.79;68.64
5753;BME280;2901;42.140;24.760;2022-07-23T01:20:14;99537.69;;;23.77;69.67
5753;BME280;2901;42.140;24.760;2022-07-23T01:22:40;99534.38;;;23.74;69.92
5753;BME280;2901;42.140;24.760;2022-07-23T01:25:06;99529.16;;;23.72;69.75
5753;BME280;2901;42.140;24.760;2022-07-23T01:27:31;99528.31;;;23.72;70.06
5753;BME280;2901;42.140;24.760;2022-07-23T01:29:57;99533.41;;;23.75;69.62
5753;BME280;2901;42.140;24.760;2022-07-23T01:32:24;99527.06;;;23.63;68.92
5753;BME280;2901;42.140;24.760;2022-07-23T01:34:50;99523.75;;;23.60;69.11
5753;BME280;2901;42.140;24.760;2022-07-23T01:37:15;99535.94;;;23.62;69.38
5753;BME280;2901;42.140;24.760;2022-07-23T01:39:41;99537.22;;;23.55;68.91
5753;BME280;2901;42.140;24.760;2022-07-23T01:42:06;99529.03;;;23.60;68.93
5753;BME280;2901;42.140;24.760;2022-07-23T01:44:31;99532.53;;;23.60;69.01
5753;BME280;2901;42.140;24.760;2022-07-23T01:46:57;99529.91;;;23.60;69.71
5753;BME280;2901;42.140;24.760;2022-07-23T01:49:22;99541.31;;;23.61;68.95
5753;BME280;2901;42.140;24.760;2022-07-23T01:51:48;99532.22;;;23.51;68.39
5753;BME280;2901;42.140;24.760;2022-07-23T01:54:36;99531.63;;;23.46;68.39
5753;BME280;2901;42.140;24.760;2022-07-23T01:57:02;99533.41;;;23.45;68.65
5753;BME280;2901;42.140;24.760;2022-07-23T01:59:28;99534.84;;;23.35;68.78
5753;BME280;2901;42.140;24.760;2022-07-23T02:01:53;99526.75;;;23.38;68.68
5753;BME280;2901;42.140;24.760;2022-07-23T02:04:23;99530.25;;;23.39;69.26
5753;BME280;2901;42.140;24.760;2022-07-23T02:06:49;99530.97;;;23.42;68.73
5753;BME280;2901;42.140;24.760;2022-07-23T02:09:15;99534.19;;;23.47;68.56
5753;BME280;2901;42.140;24.760;2022-07-23T02:11:41;99528.06;;;23.47;68.19
5753;BME280;2901;42.140;24.760;2022-07-23T02:14:07;99531.81;;;23.43;68.43
5753;BME280;2901;42.140;24.760;2022-07-23T02:16:32;99533.53;;;23.44;68.74
5753;BME280;2901;42.140;24.760;2022-07-23T02:18:58;99531.63;;;23.46;68.58
5753;BME280;2901;42.140;24.760;2022-07-23T02:21:23;99535.31;;;23.43;68.54
5753;BME280;2901;42.140;24.760;2022-07-23T02:23:49;99531.09;;;23.39;68.28
5753;BME280;2901;42.140;24.760;2022-07-23T02:26:14;99528.75;;;23.35;68.35
5753;BME280;2901;42.140;24.760;2022-07-23T02:28:39;99533.53;;;23.28;68.71
5753;BME280;2901;42.140;24.760;2022-07-23T02:31:05;99528.19;;;23.14;69.35
5753;BME280;2901;42.140;24.760;2022-07-23T02:33:32;99537.16;;;23.11;70.07
5753;BME280;2901;42.140;24.760;2022-07-23T02:35:58;99538.31;;;23.06;70.64
5753;BME280;2901;42.140;24.760;2022-07-23T02:38:23;99530.00;;;22.98;70.93
5753;BME280;2901;42.140;24.760;2022-07-23T02:40:48;99538.69;;;23.00;70.95
5753;BME280;2901;42.140;24.760;2022-07-23T02:43:14;99532.28;;;23.04;71.12
5753;BME280;2901;42.140;24.760;2022-07-23T02:45:39;99534.69;;;23.08;70.86
5753;BME280;2901;42.140;24.760;2022-07-23T02:48:05;99537.91;;;23.13;70.74
5753;BME280;2901;42.140;24.760;2022-07-23T02:50:30;99533.53;;;23.12;71.07
5753;BME280;2901;42.140;24.760;2022-07-23T02:52:55;99537.03;;;23.13;70.63
5753;BME280;2901;42.140;24.760;2022-07-23T02:55:21;99537.03;;;23.13;70.14
5753;BME280;2901;42.140;24.760;2022-07-23T02:57:46;99538.16;;;23.09;70.42
5753;BME280;2901;42.140;24.760;2022-07-23T03:00:12;99546.88;;;23.11;70.46
5753;BME280;2901;42.140;24.760;2022-07-23T03:02:37;99547.63;;;23.13;70.50
5753;BME280;2901;42.140;24.760;2022-07-23T03:05:03;99536.13;;;23.14;70.06
5753;BME280;2901;42.140;24.760;2022-07-23T03:07:29;99541.41;;;23.14;70.42
5753;BME280;2901;42.140;24.760;2022-07-23T03:09:54;99538.66;;;23.15;70.05
5753;BME280;2901;42.140;24.760;2022-07-23T03:12:19;99545.47;;;23.19;70.09
5753;BME280;2901;42.140;24.760;2022-07-23T03:14:45;99548.22;;;23.18;69.43
5753;BME280;2901;42.140;24.760;2022-07-23T03:17:10;99543.94;;;23.15;69.83
5753;BME280;2901;42.140;24.760;2022-07-23T03:19:36;99549.22;;;23.15;69.67
5753;BME280;2901;42.140;24.760;2022-07-23T03:22:02;99551.88;;;23.15;70.17
5753;BME280;2901;42.140;24.760;2022-07-23T03:24:28;99550.56;;;23.22;69.99
5753;BME280;2901;42.140;24.760;2022-07-23T03:27:13;99545.56;;;23.18;69.33
5753;BME280;2901;42.140;24.760;2022-07-23T03:29:39;99552.13;;;23.26;69.66
5753;BME280;2901;42.140;24.760;2022-07-23T03:32:04;99557.47;;;23.25;69.33
5753;BME280;2901;42.140;24.760;2022-07-23T03:34:30;99551.44;;;23.23;69.57
5753;BME280;2901;42.140;24.760;2022-07-23T03:36:55;99555.97;;;23.21;69.74
5753;BME280;2901;42.140;24.760;2022-07-23T03:39:21;99560.56;;;23.17;69.88
5753;BME280;2901;42.140;24.760;2022-07-23T03:41:46;99556.91;;;23.20;70.31
5753;BME280;2901;42.140;24.760;2022-07-23T03:44:11;99553.41;;;23.19;69.37
5753;BME280;2901;42.140;24.760;2022-07-23T03:46:37;99560.47;;;23.19;69.31
5753;BME280;2901;42.140;24.760;2022-07-23T03:49:02;99561.81;;;23.26;69.61
5753;BME280;2901;42.140;24.760;2022-07-23T03:51:27;99555.63;;;23.27;69.63
5753;BME280;2901;42.140;24.760;2022-07-23T03:53:53;99557.91;;;23.33;68.48
5753;BME280;2901;42.140;24.760;2022-07-23T03:56:19;99551.84;;;23.31;67.62
5753;BME280;2901;42.140;24.760;2022-07-23T03:58:45;99556.81;;;23.21;67.64
5753;BME280;2901;42.140;24.760;2022-07-23T04:01:10;99558.78;;;23.18;67.82
5753;BME280;2901;42.140;24.760;2022-07-23T04:03:37;99559.78;;;23.15;67.90
5753;BME280;2901;42.140;24.760;2022-07-23T04:06:02;99552.16;;;23.11;67.94
5753;BME280;2901;42.140;24.760;2022-07-23T04:08:28;99560.41;;;23.05;68.41
5753;BME280;2901;42.140;24.760;2022-07-23T04:10:53;99559.81;;;23.00;68.68
5753;BME280;2901;42.140;24.760;2022-07-23T04:13:19;99557.28;;;22.98;68.63
5753;BME280;2901;42.140;24.760;2022-07-23T04:15:44;99558.03;;;23.00;68.53
5753;BME280;2901;42.140;24.760;2022-07-23T04:18:09;99556.81;;;23.06;68.15
5753;BME280;2901;42.140;24.760;2022-07-23T04:20:35;99566.09;;;23.13;68.58
5753;BME280;2901;42.140;24.760;2022-07-23T04:23:00;99558.69;;;23.19;68.16
5753;BME280;2901;42.140;24.760;2022-07-23T04:25:26;99566.00;;;23.30;67.94
5753;BME280;2901;42.140;24.760;2022-07-23T04:27:51;99570.94;;;23.36;67.54
5753;BME280;2901;42.140;24.760;2022-07-23T04:30:16;99568.75;;;23.44;67.09
5753;BME280;2901;42.140;24.760;2022-07-23T04:32:42;99569.31;;;23.49;67.10
5753;BME280;2901;42.140;24.760;2022-07-23T04:35:08;99568.94;;;23.55;67.16
5753;BME280;2901;42.140;24.760;2022-07-23T04:37:33;99569.13;;;23.52;66.49
5753;BME280;2901;42.140;24.760;2022-07-23T04:39:58;99563.78;;;23.54;66.82
5753;BME280;2901;42.140;24.760;2022-07-23T04:42:24;99557.19;;;23.61;66.18
5753;BME280;2901;42.140;24.760;2022-07-23T04:44:49;99547.97;;;23.52;66.45
5753;BME280;2901;42.140;24.760;2022-07-23T04:47:15;99562.13;;;23.67;65.72
5753;BME280;2901;42.140;24.760;2022-07-23T04:49:40;99561.44;;;23.63;65.91
5753;BME280;2901;42.140;24.760;2022-07-23T04:52:05;99571.56;;;23.71;65.90
5753;BME280;2901;42.140;24.760;2022-07-23T04:54:31;99574.84;;;23.74;65.86
5753;BME280;2901;42.140;24.760;2022-07-23T04:56:56;99576.22;;;23.82;65.59
5753;BME280;2901;42.140;24.760;2022-07-23T04:59:21;99569.91;;;23.84;65.63
5753;BME280;2901;42.140;24.760;2022-07-23T05:01:47;99569.34;;;23.93;65.42
5753;BME280;2901;42.140;24.760;2022-07-23T05:04:13;99573.63;;;24.10;65.22
5753;BME280;2901;42.140;24.760;2022-07-23T05:06:38;99561.56;;;24.20;65.18
5753;BME280;2901;42.140;24.760;2022-07-23T05:09:03;99562.25;;;24.23;64.51
5753;BME280;2901;42.140;24.760;2022-07-23T05:11:29;99560.53;;;24.22;64.00
5753;BME280;2901;42.140;24.760;2022-07-23T05:13:54;99566.38;;;24.27;64.28
5753;BME280;2901;42.140;24.760;2022-07-23T05:16:19;99559.41;;;24.26;63.76
5753;BME280;2901;42.140;24.760;2022-07-23T05:18:45;99557.13;;;24.35;64.33
5753;BME280;2901;42.140;24.760;2022-07-23T05:21:10;99560.63;;;24.49;63.75
5753;BME280;2901;42.140;24.760;2022-07-23T05:23:36;99556.81;;;24.67;63.53
5753;BME280;2901;42.140;24.760;2022-07-23T05:26:01;99561.63;;;24.75;63.43
5753;BME280;2901;42.140;24.760;2022-07-23T05:28:26;99557.84;;;24.79;63.35
5753;BME280;2901;42.140;24.760;2022-07-23T05:30:52;99560.00;;;24.87;63.35
5753;BME280;2901;42.140;24.760;2022-07-23T05:33:18;99557.75;;;24.95;63.69
5753;BME280;2901;42.140;24.760;2022-07-23T05:35:44;99552.78;;;25.03;62.55
5753;BME280;2901;42.140;24.760;2022-07-23T05:38:10;99543.59;;;25.08;61.86
5753;BME280;2901;42.140;24.760;2022-07-23T05:40:35;99551.81;;;25.18;60.91
5753;BME280;2901;42.140;24.760;2022-07-23T05:43:01;99559.91;;;25.29;60.55
5753;BME280;2901;42.140;24.760;2022-07-23T05:45:26;99549.75;;;25.36;60.91
5753;BME280;2901;42.140;24.760;2022-07-23T05:47:51;99545.41;;;25.47;60.33
5753;BME280;2901;42.140;24.760;2022-07-23T05:50:17;99556.00;;;25.61;60.77
5753;BME280;2901;42.140;24.760;2022-07-23T05:52:43;99558.75;;;25.72;59.80
5753;BME280;2901;42.140;24.760;2022-07-23T05:55:10;99555.81;;;25.90;59.81
5753;BME280;2901;42.140;24.760;2022-07-23T05:57:37;99553.94;;;26.04;59.88
5753;BME280;2901;42.140;24.760;2022-07-23T06:00:04;99558.03;;;26.08;59.15
5753;BME280;2901;42.140;24.760;2022-07-23T06:02:30;99553.00;;;26.18;59.02
5753;BME280;2901;42.140;24.760;2022-07-23T06:04:55;99551.09;;;26.20;58.68
5753;BME280;2901;42.140;24.760;2022-07-23T06:07:21;99552.44;;;26.25;58.17
5753;BME280;2901;42.140;24.760;2022-07-23T06:09:46;99557.97;;;26.35;58.71
5753;BME280;2901;42.140;24.760;2022-07-23T06:12:14;99557.94;;;26.48;58.85
5753;BME280;2901;42.140;24.760;2022-07-23T06:14:40;99556.25;;;26.59;58.99
5753;BME280;2901;42.140;24.760;2022-07-23T06:17:05;99552.06;;;26.68;58.64
5753;BME280;2901;42.140;24.760;2022-07-23T06:19:30;99545.81;;;26.81;58.77
5753;BME280;2901;42.140;24.760;2022-07-23T06:21:56;99548.81;;;27.01;56.76
5753;BME280;2901;42.140;24.760;2022-07-23T06:24:21;99556.41;;;27.18;56.29
5753;BME280;2901;42.140;24.760;2022-07-23T06:26:47;99547.66;;;27.28;56.41
5753;BME280;2901;42.140;24.760;2022-07-23T06:29:12;99557.56;;;27.50;55.13
5753;BME280;2901;42.140;24.760;2022-07-23T06:31:37;99552.19;;;27.63;54.16
5753;BME280;2901;42.140;24.760;2022-07-23T06:34:03;99558.59;;;27.71;54.28
5753;BME280;2901;42.140;24.760;2022-07-23T06:36:28;99551.84;;;27.78;54.35
5753;BME280;2901;42.140;24.760;2022-07-23T06:38:54;99547.53;;;27.89;54.51
5753;BME280;2901;42.140;24.760;2022-07-23T06:41:19;99548.88;;;28.05;52.55
5753;BME280;2901;42.140;24.760;2022-07-23T06:43:45;99554.25;;;28.16;52.14
5753;BME280;2901;42.140;24.760;2022-07-23T06:46:10;99541.78;;;28.28;52.09
5753;BME280;2901;42.140;24.760;2022-07-23T06:48:35;99542.53;;;28.41;52.34
5753;BME280;2901;42.140;24.760;2022-07-23T06:51:02;99536.59;;;28.38;50.87
5753;BME280;2901;42.140;24.760;2022-07-23T06:53:28;99543.00;;;28.46;51.01
5753;BME280;2901;42.140;24.760;2022-07-23T06:55:53;99541.28;;;28.56;50.29
5753;BME280;2901;42.140;24.760;2022-07-23T06:58:19;99537.06;;;28.65;50.67
5753;BME280;2901;42.140;24.760;2022-07-23T07:00:45;99519.38;;;28.75;49.69
5753;BME280;2901;42.140;24.760;2022-07-23T07:03:11;99524.06;;;28.94;49.51
5753;BME280;2901;42.140;24.760;2022-07-23T07:05:37;99515.66;;;29.09;48.82
5753;BME280;2901;42.140;24.760;2022-07-23T07:08:02;99524.47;;;29.21;48.08
5753;BME280;2901;42.140;24.760;2022-07-23T07:10:28;99520.34;;;29.28;47.09
5753;BME280;2901;42.140;24.760;2022-07-23T07:12:53;99518.25;;;29.31;45.56
5753;BME280;2901;42.140;24.760;2022-07-23T07:15:18;99516.53;;;29.42;45.06
5753;BME280;2901;42.140;24.760;2022-07-23T07:17:44;99522.53;;;29.55;45.39
5753;BME280;2901;42.140;24.760;2022-07-23T07:20:09;99516.75;;;29.70;44.10
5753;BME280;2901;42.140;24.760;2022-07-23T07:22:35;99510.97;;;29.86;43.70
5753;BME280;2901;42.140;24.760;2022-07-23T07:25:01;99513.13;;;29.92;41.83
5753;BME280;2901;42.140;24.760;2022-07-23T07:27:26;99512.72;;;29.97;42.86
5753;BME280;2901;42.140;24.760;2022-07-23T07:29:52;99507.44;;;30.06;42.49
5753;BME280;2901;42.140;24.760;2022-07-23T07:32:17;99506.75;;;30.14;42.49
5753;BME280;2901;42.140;24.760;2022-07-23T07:34:43;99501.34;;;30.25;42.07
5753;BME280;2901;42.140;24.760;2022-07-23T07:37:08;99501.94;;;30.38;41.75
5753;BME280;2901;42.140;24.760;2022-07-23T07:39:33;99502.31;;;30.54;41.00
5753;BME280;2901;42.140;24.760;2022-07-23T07:41:59;99499.66;;;30.64;40.62
5753;BME280;2901;42.140;24.760;2022-07-23T07:44:24;99501.00;;;30.88;40.95
5753;BME280;2901;42.140;24.760;2022-07-23T07:46:50;99499.78;;;31.02;39.65
5753;BME280;2901;42.140;24.760;2022-07-23T07:49:15;99500.06;;;31.09;39.23
5753;BME280;2901;42.140;24.760;2022-07-23T07:51:44;99497.94;;;31.12;39.17
5753;BME280;2901;42.140;24.760;2022-07-23T07:54:10;99486.69;;;31.28;38.98
5753;BME280;2901;42.140;24.760;2022-07-23T07:56:35;99494.84;;;31.46;38.10
5753;BME280;2901;42.140;24.760;2022-07-23T07:59:01;99493.75;;;31.58;38.61
5753;BME280;2901;42.140;24.760;2022-07-23T08:01:26;99487.38;;;31.59;37.65
5753;BME280;2901;42.140;24.760;2022-07-23T08:03:51;99492.72;;;31.68;37.81
5753;BME280;2901;42.140;24.760;2022-07-23T08:06:17;99489.75;;;31.81;37.56
5753;BME280;2901;42.140;24.760;2022-07-23T08:08:42;99483.50;;;32.00;36.89
5753;BME280;2901;42.140;24.760;2022-07-23T08:11:08;99478.78;;;32.21;36.61
5753;BME280;2901;42.140;24.760;2022-07-23T08:13:33;99490.47;;;32.29;35.57
5753;BME280;2901;42.140;24.760;2022-07-23T08:15:58;99482.38;;;32.39;35.59
5753;BME280;2901;42.140;24.760;2022-07-23T08:18:24;99475.66;;;32.53;35.19
5753;BME280;2901;42.140;24.760;2022-07-23T08:20:49;99472.28;;;32.60;34.30
5753;BME280;2901;42.140;24.760;2022-07-23T08:23:15;99461.31;;;32.71;33.85
5753;BME280;2901;42.140;24.760;2022-07-23T08:25:44;99458.25;;;32.84;33.82
5753;BME280;2901;42.140;24.760;2022-07-23T08:28:11;99459.09;;;33.12;33.76
5753;BME280;2901;42.140;24.760;2022-07-23T08:30:38;99444.28;;;33.25;32.73
5753;BME280;2901;42.140;24.760;2022-07-23T08:33:06;99453.66;;;33.47;31.98
5753;BME280;2901;42.140;24.760;2022-07-23T08:35:38;99449.81;;;33.67;32.66
5753;BME280;2901;42.140;24.760;2022-07-23T08:38:06;99445.19;;;33.77;31.95
5753;BME280;2901;42.140;24.760;2022-07-23T08:40:34;99450.19;;;33.98;31.32
5753;BME280;2901;42.140;24.760;2022-07-23T08:43:06;99446.63;;;34.23;31.12
5753;BME280;2901;42.140;24.760;2022-07-23T08:45:36;99435.06;;;34.31;30.99
5753;BME280;2901;42.140;24.760;2022-07-23T08:48:03;99433.59;;;34.45;30.96
5753;BME280;2901;42.140;24.760;2022-07-23T08:50:28;99441.75;;;34.61;30.64
5753;BME280;2901;42.140;24.760;2022-07-23T08:52:54;99437.88;;;34.71;30.05
5753;BME280;2901;42.140;24.760;2022-07-23T08:55:22;99437.94;;;34.87;30.74
5753;BME280;2901;42.140;24.760;2022-07-23T08:57:49;99432.22;;;34.90;29.38
5753;BME280;2901;42.140;24.760;2022-07-23T09:00:15;99435.91;;;34.98;29.60
5753;BME280;2901;42.140;24.760;2022-07-23T09:02:43;99434.44;;;35.11;29.41
5753;BME280;2901;42.140;24.760;2022-07-23T09:05:10;99429.91;;;35.28;28.95
5753;BME280;2901;42.140;24.760;2022-07-23T09:07:37;99427.88;;;35.46;29.26
5753;BME280;2901;42.140;24.760;2022-07-23T09:10:10;99418.63;;;35.65;29.56
5753;BME280;2901;42.140;24.760;2022-07-23T09:12:37;99416.88;;;35.88;28.50
5753;BME280;2901;42.140;24.760;2022-07-23T09:15:07;99424.06;;;36.04;28.04
5753;BME280;2901;42.140;24.760;2022-07-23T09:17:41;99421.50;;;36.18;27.58
5753;BME280;2901;42.140;24.760;2022-07-23T09:20:12;99428.09;;;36.16;26.70
5753;BME280;2901;42.140;24.760;2022-07-23T09:22:38;99421.66;;;36.25;26.73
5753;BME280;2901;42.140;24.760;2022-07-23T09:25:09;99417.94;;;36.26;26.97
5753;BME280;2901;42.140;24.760;2022-07-23T09:30:12;99408.81;;;36.27;26.37
5753;BME280;2901;42.140;24.760;2022-07-23T09:32:39;99420.72;;;36.40;26.17
5753;BME280;2901;42.140;24.760;2022-07-23T09:35:04;99410.25;;;36.46;25.41
5753;BME280;2901;42.140;24.760;2022-07-23T09:37:30;99401.41;;;36.60;26.35
5753;BME280;2901;42.140;24.760;2022-07-23T09:40:06;99406.53;;;36.77;25.89
5753;BME280;2901;42.140;24.760;2022-07-23T09:42:32;99403.88;;;36.92;25.54
5753;BME280;2901;42.140;24.760;2022-07-23T09:44:58;99401.66;;;37.04;25.22
5753;BME280;2901;42.140;24.760;2022-07-23T09:47:27;99395.09;;;37.21;25.33
5753;BME280;2901;42.140;24.760;2022-07-23T09:50:09;99399.19;;;37.31;22.90
5753;BME280;2901;42.140;24.760;2022-07-23T09:55:10;99398.28;;;37.24;22.85
5753;BME280;2901;42.140;24.760;2022-07-23T09:57:36;99377.13;;;37.28;22.60
5753;BME280;2901;42.140;24.760;2022-07-23T10:00:05;99391.19;;;37.38;21.96
5753;BME280;2901;42.140;24.760;2022-07-23T10:02:32;99390.81;;;37.26;23.07
5753;BME280;2901;42.140;24.760;2022-07-23T10:04:59;99383.72;;;37.25;23.03
5753;BME280;2901;42.140;24.760;2022-07-23T10:07:26;99384.13;;;37.37;22.22
5753;BME280;2901;42.140;24.760;2022-07-23T10:09:52;99382.69;;;37.49;22.33
5753;BME280;2901;42.140;24.760;2022-07-23T10:12:18;99380.63;;;37.66;22.11
5753;BME280;2901;42.140;24.760;2022-07-23T10:15:04;99379.31;;;37.91;21.93
5753;BME280;2901;42.140;24.760;2022-07-23T10:17:32;99374.59;;;38.08;22.03
5753;BME280;2901;42.140;24.760;2022-07-23T10:19:57;99379.22;;;38.28;21.42
5753;BME280;2901;42.140;24.760;2022-07-23T10:22:29;99370.63;;;38.25;21.46
5753;BME280;2901;42.140;24.760;2022-07-23T10:25:24;99374.81;;;38.27;21.63
5753;BME280;2901;42.140;24.760;2022-07-23T10:36:19;99361.88;;;38.23;20.43
5753;BME280;2901;42.140;24.760;2022-07-23T10:38:53;99354.78;;;38.22;20.90
5753;BME280;2901;42.140;24.760;2022-07-23T10:44:32;99356.28;;;38.39;20.68
5753;BME280;2901;42.140;24.760;2022-07-23T10:47:04;99351.91;;;38.59;21.15
5753;BME280;2901;42.140;24.760;2022-07-23T10:49:35;99344.31;;;38.69;20.86
5753;BME280;2901;42.140;24.760;2022-07-23T10:52:24;99349.59;;;38.56;20.16
5753;BME280;2901;42.140;24.760;2022-07-23T10:54:52;99349.53;;;38.35;20.28
5753;BME280;2901;42.140;24.760;2022-07-23T10:57:19;99342.34;;;38.27;20.40
5753;BME280;2901;42.140;24.760;2022-07-23T11:02:35;99329.19;;;38.03;20.82
5753;BME280;2901;42.140;24.760;2022-07-23T11:05:04;99330.19;;;38.17;20.68
5753;BME280;2901;42.140;24.760;2022-07-23T11:07:30;99328.38;;;38.24;19.56
5753;BME280;2901;42.140;24.760;2022-07-23T11:09:56;99323.22;;;38.29;20.51
5753;BME280;2901;42.140;24.760;2022-07-23T11:15:10;99316.13;;;38.64;19.85
5753;BME280;2901;42.140;24.760;2022-07-23T11:20:19;99313.50;;;38.91;18.48
5753;BME280;2901;42.140;24.760;2022-07-23T11:25:12;99304.28;;;39.14;18.32
5753;BME280;2901;42.140;24.760;2022-07-23T11:27:43;99303.09;;;39.23;18.08
5753;BME280;2901;42.140;24.760;2022-07-23T11:35:40;99296.44;;;39.53;16.84
5753;BME280;2901;42.140;24.760;2022-07-23T11:40:33;99291.47;;;39.63;17.69
5753;BME280;2901;42.140;24.760;2022-07-23T11:43:07;99295.56;;;39.80;17.63
5753;BME280;2901;42.140;24.760;2022-07-23T11:45:41;99288.88;;;39.83;17.38
5753;BME280;2901;42.140;24.760;2022-07-23T11:48:09;99290.13;;;39.80;17.71
5753;BME280;2901;42.140;24.760;2022-07-23T11:50:35;99284.91;;;39.79;17.90
5753;BME280;2901;42.140;24.760;2022-07-23T11:53:01;99287.22;;;39.88;17.93
5753;BME280;2901;42.140;24.760;2022-07-23T11:55:27;99284.34;;;39.97;18.09
5753;BME280;2901;42.140;24.760;2022-07-23T11:57:55;99280.41;;;40.06;17.84
5753;BME280;2901;42.140;24.760;2022-07-23T12:00:24;99277.16;;;40.30;17.24
5753;BME280;2901;42.140;24.760;2022-07-23T12:02:55;99280.75;;;40.43;17.61
5753;BME280;2901;42.140;24.760;2022-07-23T12:05:31;99274.84;;;40.14;17.94
5753;BME280;2901;42.140;24.760;2022-07-23T12:07:57;99287.03;;;39.90;17.43
5753;BME280;2901;42.140;24.760;2022-07-23T12:10:26;99272.44;;;39.91;17.69
5753;BME280;2901;42.140;24.760;2022-07-23T12:13:13;99278.06;;;39.89;17.19
5753;BME280;2901;42.140;24.760;2022-07-23T12:15:45;99275.09;;;39.71;18.04
5753;BME280;2901;42.140;24.760;2022-07-23T12:18:13;99271.59;;;39.84;17.66
5753;BME280;2901;42.140;24.760;2022-07-23T12:20:53;99268.69;;;39.99;17.77
5753;BME280;2901;42.140;24.760;2022-07-23T12:23:20;99258.28;;;40.02;18.06
5753;BME280;2901;42.140;24.760;2022-07-23T12:25:48;99255.84;;;40.14;17.16
5753;BME280;2901;42.140;24.760;2022-07-23T12:28:19;99257.44;;;40.02;17.86
5753;BME280;2901;42.140;24.760;2022-07-23T12:30:52;99245.25;;;39.71;18.08
5753;BME280;2901;42.140;24.760;2022-07-23T12:33:24;99245.88;;;39.73;17.34
5753;BME280;2901;42.140;24.760;2022-07-23T12:35:50;99235.47;;;39.83;17.62
5753;BME280;2901;42.140;24.760;2022-07-23T12:38:20;99241.81;;;40.10;17.49
5753;BME280;2901;42.140;24.760;2022-07-23T12:40:57;99243.63;;;39.90;17.34
5753;BME280;2901;42.140;24.760;2022-07-23T12:46:03;99237.66;;;40.08;17.46
5753;BME280;2901;42.140;24.760;2022-07-23T12:51:21;99210.75;;;40.32;17.03
5753;BME280;2901;42.140;24.760;2022-07-23T12:53:49;99224.19;;;40.60;17.30
5753;BME280;2901;42.140;24.760;2022-07-23T12:56:17;99217.25;;;40.84;17.20
5753;BME280;2901;42.140;24.760;2022-07-23T12:58:51;99217.47;;;41.02;16.56
5753;BME280;2901;42.140;24.760;2022-07-23T13:04:01;99206.59;;;41.02;16.87
5753;BME280;2901;42.140;24.760;2022-07-23T13:06:28;99203.25;;;41.07;16.54
5753;BME280;2901;42.140;24.760;2022-07-23T13:08:54;99201.19;;;40.96;16.07
5753;BME280;2901;42.140;24.760;2022-07-23T13:11:20;99202.88;;;40.97;16.52
5753;BME280;2901;42.140;24.760;2022-07-23T13:13:45;99192.00;;;40.83;16.43
5753;BME280;2901;42.140;24.760;2022-07-23T13:16:10;99194.91;;;41.02;16.49
5753;BME280;2901;42.140;24.760;2022-07-23T13:18:36;99190.72;;;40.99;16.93
5753;BME280;2901;42.140;24.760;2022-07-23T13:21:01;99193.59;;;41.17;16.81
5753;BME280;2901;42.140;24.760;2022-07-23T13:23:27;99192.34;;;41.20;16.03
5753;BME280;2901;42.140;24.760;2022-07-23T13:25:53;99189.81;;;41.25;16.59
5753;BME280;2901;42.140;24.760;2022-07-23T13:28:19;99197.53;;;41.41;16.39
5753;BME280;2901;42.140;24.760;2022-07-23T13:30:46;99193.72;;;41.49;16.56
5753;BME280;2901;42.140;24.760;2022-07-23T13:33:12;99196.91;;;41.39;16.56
5753;BME280;2901;42.140;24.760;2022-07-23T13:35:38;99188.09;;;41.30;16.54
5753;BME280;2901;42.140;24.760;2022-07-23T13:38:05;99183.25;;;41.52;16.34
5753;BME280;2901;42.140;24.760;2022-07-23T13:40:40;99190.25;;;41.79;15.78
5753;BME280;2901;42.140;24.760;2022-07-23T13:43:08;99191.19;;;41.98;16.67
5753;BME280;2901;42.140;24.760;2022-07-23T13:45:34;99178.97;;;42.07;16.23
5753;BME280;2901;42.140;24.760;2022-07-23T13:48:00;99177.88;;;42.15;16.44
5753;BME280;2901;42.140;24.760;2022-07-23T13:50:25;99181.22;;;41.85;15.87
5753;BME280;2901;42.140;24.760;2022-07-23T13:52:51;99185.09;;;41.58;15.90